sensor_id;sensor_type;location;lat;lon;timestamp;P1;durP1;ratioP1;P2;durP2;ratioP2
22814;SDS011;11574;51.058;13.712;2023-04-30T00:03:44;14.57;;;10.03;;
22814;SDS011;11574;51.058;13.712;2023-04-30T00:08:47;13.40;;;8.87;;
22814;SDS011;11574;51.058;13.712;2023-04-30T00:13:49;17.23;;;9.93;;
22814;SDS011;11574;51.058;13.712;2023-04-30T00:18:52;13.73;;;9.77;;
22814;SDS011;11574;51.058;13.712;2023-04-30T00:23:55;16.20;;;10.97;;
22814;SDS011;11574;51.058;13.712;2023-04-30T00:28:59;13.80;;;8.53;;
22814;SDS011;11574;51.058;13.712;2023-04-30T00:34:01;13.33;;;8.90;;
22814;SDS011;11574;51.058;13.712;2023-04-30T00:39:05;15.40;;;9.57;;
22814;SDS011;11574;51.058;13.712;2023-04-30T00:44:07;16.30;;;10.10;;
22814;SDS011;11574;51.058;13.712;2023-04-30T00:49:09;12.03;;;8.30;;
22814;SDS011;11574;51.058;13.712;2023-04-30T00:54:13;14.63;;;8.73;;
22814;SDS011;11574;51.058;13.712;2023-04-30T00:59:15;11.37;;;7.70;;
22814;SDS011;11574;51.058;13.712;2023-04-30T01:04:18;15.53;;;8.10;;
22814;SDS011;11574;51.058;13.712;2023-04-30T01:09:22;11.67;;;7.33;;
22814;SDS011;11574;51.058;13.712;2023-04-30T01:14:24;11.87;;;6.93;;
22814;SDS011;11574;51.058;13.712;2023-04-30T01:19:34;11.90;;;7.27;;
22814;SDS011;11574;51.058;13.712;2023-04-30T01:24:42;14.30;;;8.00;;
22814;SDS011;11574;51.058;13.712;2023-04-30T01:29:51;11.10;;;7.97;;
22814;SDS011;11574;51.058;13.712;2023-04-30T01:34:55;13.47;;;8.20;;
22814;SDS011;11574;51.058;13.712;2023-04-30T01:40:03;15.57;;;9.03;;
22814;SDS011;11574;51.058;13.712;2023-04-30T01:45:24;15.53;;;8.87;;
22814;SDS011;11574;51.058;13.712;2023-04-30T01:50:36;14.77;;;8.90;;
22814;SDS011;11574;51.058;13.712;2023-04-30T01:55:40;14.23;;;8.40;;
22814;SDS011;11574;51.058;13.712;2023-04-30T02:00:45;11.77;;;7.13;;
22814;SDS011;11574;51.058;13.712;2023-04-30T02:05:47;11.20;;;7.40;;
22814;SDS011;11574;51.058;13.712;2023-04-30T02:10:49;10.30;;;6.30;;
22814;SDS011;11574;51.058;13.712;2023-04-30T02:15:53;12.63;;;6.60;;
22814;SDS011;11574;51.058;13.712;2023-04-30T02:20:55;9.50;;;5.93;;
22814;SDS011;11574;51.058;13.712;2023-04-30T02:25:57;7.77;;;5.03;;
22814;SDS011;11574;51.058;13.712;2023-04-30T02:31:01;9.23;;;5.30;;
22814;SDS011;11574;51.058;13.712;2023-04-30T02:36:03;8.97;;;5.90;;
22814;SDS011;11574;51.058;13.712;2023-04-30T02:41:05;8.67;;;5.30;;
22814;SDS011;11574;51.058;13.712;2023-04-30T02:46:09;8.93;;;5.00;;
22814;SDS011;11574;51.058;13.712;2023-04-30T02:51:11;8.60;;;5.03;;
22814;SDS011;11574;51.058;13.712;2023-04-30T02:56:13;9.77;;;4.53;;
22814;SDS011;11574;51.058;13.712;2023-04-30T03:01:17;11.83;;;5.20;;
22814;SDS011;11574;51.058;13.712;2023-04-30T03:06:19;14.40;;;4.90;;
22814;SDS011;11574;51.058;13.712;2023-04-30T03:11:21;10.17;;;4.33;;
22814;SDS011;11574;51.058;13.712;2023-04-30T03:16:25;9.87;;;4.70;;
22814;SDS011;11574;51.058;13.712;2023-04-30T03:21:29;7.73;;;4.63;;
22814;SDS011;11574;51.058;13.712;2023-04-30T03:26:32;9.10;;;4.17;;
22814;SDS011;11574;51.058;13.712;2023-04-30T03:31:35;7.80;;;4.30;;
22814;SDS011;11574;51.058;13.712;2023-04-30T03:36:37;5.47;;;3.77;;
22814;SDS011;11574;51.058;13.712;2023-04-30T03:41:40;6.10;;;3.70;;
22814;SDS011;11574;51.058;13.712;2023-04-30T03:46:44;5.10;;;3.63;;
22814;SDS011;11574;51.058;13.712;2023-04-30T03:51:46;7.53;;;3.93;;
22814;SDS011;11574;51.058;13.712;2023-04-30T03:56:48;7.70;;;3.80;;
22814;SDS011;11574;51.058;13.712;2023-04-30T04:01:52;7.83;;;3.60;;
22814;SDS011;11574;51.058;13.712;2023-04-30T04:06:54;10.10;;;3.80;;
22814;SDS011;11574;51.058;13.712;2023-04-30T04:11:56;7.47;;;3.73;;
22814;SDS011;11574;51.058;13.712;2023-04-30T04:17:00;4.83;;;3.20;;
22814;SDS011;11574;51.058;13.712;2023-04-30T04:22:04;4.30;;;2.97;;
22814;SDS011;11574;51.058;13.712;2023-04-30T04:27:07;5.87;;;3.20;;
22814;SDS011;11574;51.058;13.712;2023-04-30T04:32:10;6.53;;;3.27;;
22814;SDS011;11574;51.058;13.712;2023-04-30T04:37:13;4.70;;;3.03;;
22814;SDS011;11574;51.058;13.712;2023-04-30T04:42:16;7.10;;;3.47;;
22814;SDS011;11574;51.058;13.712;2023-04-30T04:47:20;6.13;;;3.33;;
22814;SDS011;11574;51.058;13.712;2023-04-30T04:52:23;6.13;;;2.40;;
22814;SDS011;11574;51.058;13.712;2023-04-30T04:57:25;5.43;;;2.70;;
22814;SDS011;11574;51.058;13.712;2023-04-30T05:02:29;6.43;;;3.00;;
22814;SDS011;11574;51.058;13.712;2023-04-30T05:07:31;4.03;;;2.57;;
22814;SDS011;11574;51.058;13.712;2023-04-30T05:12:34;6.37;;;3.17;;
22814;SDS011;11574;51.058;13.712;2023-04-30T05:17:38;6.07;;;3.43;;
22814;SDS011;11574;51.058;13.712;2023-04-30T05:22:40;6.50;;;2.97;;
22814;SDS011;11574;51.058;13.712;2023-04-30T05:27:43;4.70;;;2.70;;
22814;SDS011;11574;51.058;13.712;2023-04-30T05:32:46;5.83;;;3.00;;
22814;SDS011;11574;51.058;13.712;2023-04-30T05:37:51;3.90;;;2.70;;
22814;SDS011;11574;51.058;13.712;2023-04-30T05:42:53;5.43;;;2.60;;
22814;SDS011;11574;51.058;13.712;2023-04-30T05:47:56;5.80;;;3.13;;
22814;SDS011;11574;51.058;13.712;2023-04-30T05:53:00;5.57;;;2.53;;
22814;SDS011;11574;51.058;13.712;2023-04-30T05:58:03;5.60;;;2.50;;
22814;SDS011;11574;51.058;13.712;2023-04-30T06:03:06;6.10;;;2.40;;
22814;SDS011;11574;51.058;13.712;2023-04-30T06:08:09;6.97;;;2.80;;
22814;SDS011;11574;51.058;13.712;2023-04-30T06:13:11;5.20;;;2.57;;
22814;SDS011;11574;51.058;13.712;2023-04-30T06:18:15;4.27;;;2.23;;
22814;SDS011;11574;51.058;13.712;2023-04-30T06:23:17;6.40;;;2.58;;
22814;SDS011;11574;51.058;13.712;2023-04-30T06:28:19;6.97;;;2.47;;
22814;SDS011;11574;51.058;13.712;2023-04-30T06:33:23;6.10;;;2.58;;
22814;SDS011;11574;51.058;13.712;2023-04-30T06:38:25;8.60;;;2.60;;
22814;SDS011;11574;51.058;13.712;2023-04-30T06:43:27;4.77;;;2.40;;
22814;SDS011;11574;51.058;13.712;2023-04-30T06:48:30;5.13;;;2.53;;
22814;SDS011;11574;51.058;13.712;2023-04-30T06:53:33;8.13;;;2.40;;
22814;SDS011;11574;51.058;13.712;2023-04-30T06:58:35;5.23;;;2.50;;
22814;SDS011;11574;51.058;13.712;2023-04-30T07:03:38;7.00;;;2.67;;
22814;SDS011;11574;51.058;13.712;2023-04-30T07:08:41;5.33;;;2.70;;
22814;SDS011;11574;51.058;13.712;2023-04-30T07:13:43;10.00;;;3.00;;
22814;SDS011;11574;51.058;13.712;2023-04-30T07:18:46;4.70;;;2.50;;
22814;SDS011;11574;51.058;13.712;2023-04-30T07:23:49;8.53;;;2.63;;
22814;SDS011;11574;51.058;13.712;2023-04-30T07:28:51;5.77;;;2.20;;
22814;SDS011;11574;51.058;13.712;2023-04-30T07:33:54;4.83;;;2.53;;
22814;SDS011;11574;51.058;13.712;2023-04-30T07:38:58;12.70;;;2.73;;
22814;SDS011;11574;51.058;13.712;2023-04-30T07:44:00;5.90;;;2.63;;
22814;SDS011;11574;51.058;13.712;2023-04-30T07:49:04;6.70;;;2.47;;
22814;SDS011;11574;51.058;13.712;2023-04-30T07:54:06;6.40;;;2.53;;
22814;SDS011;11574;51.058;13.712;2023-04-30T07:59:08;7.88;;;2.60;;
22814;SDS011;11574;51.058;13.712;2023-04-30T08:04:12;5.93;;;2.10;;
22814;SDS011;11574;51.058;13.712;2023-04-30T08:09:14;5.68;;;2.67;;
22814;SDS011;11574;51.058;13.712;2023-04-30T08:14:16;9.00;;;3.20;;
22814;SDS011;11574;51.058;13.712;2023-04-30T08:19:20;7.30;;;2.70;;
22814;SDS011;11574;51.058;13.712;2023-04-30T08:24:22;8.35;;;2.67;;
22814;SDS011;11574;51.058;13.712;2023-04-30T08:29:24;7.50;;;2.50;;
22814;SDS011;11574;51.058;13.712;2023-04-30T08:34:28;8.73;;;2.73;;
22814;SDS011;11574;51.058;13.712;2023-04-30T08:39:30;6.63;;;2.37;;
22814;SDS011;11574;51.058;13.712;2023-04-30T08:44:32;9.77;;;3.27;;
22814;SDS011;11574;51.058;13.712;2023-04-30T08:49:36;5.67;;;2.63;;
22814;SDS011;11574;51.058;13.712;2023-04-30T08:54:39;6.73;;;2.60;;
22814;SDS011;11574;51.058;13.712;2023-04-30T08:59:43;8.40;;;2.63;;
22814;SDS011;11574;51.058;13.712;2023-04-30T09:04:47;6.13;;;2.60;;
22814;SDS011;11574;51.058;13.712;2023-04-30T09:09:51;10.70;;;2.80;;
22814;SDS011;11574;51.058;13.712;2023-04-30T09:14:57;8.83;;;2.83;;
22814;SDS011;11574;51.058;13.712;2023-04-30T09:20:08;4.90;;;2.53;;
22814;SDS011;11574;51.058;13.712;2023-04-30T09:25:10;7.33;;;2.50;;
22814;SDS011;11574;51.058;13.712;2023-04-30T09:30:17;4.90;;;2.70;;
22814;SDS011;11574;51.058;13.712;2023-04-30T09:35:32;5.80;;;2.30;;
22814;SDS011;11574;51.058;13.712;2023-04-30T09:40:35;6.50;;;2.30;;
22814;SDS011;11574;51.058;13.712;2023-04-30T09:45:38;7.13;;;2.20;;
22814;SDS011;11574;51.058;13.712;2023-04-30T09:50:42;7.30;;;2.40;;
22814;SDS011;11574;51.058;13.712;2023-04-30T09:55:44;5.80;;;2.10;;
22814;SDS011;11574;51.058;13.712;2023-04-30T10:00:46;10.70;;;3.37;;
22814;SDS011;11574;51.058;13.712;2023-04-30T10:05:52;7.13;;;2.50;;
22814;SDS011;11574;51.058;13.712;2023-04-30T10:10:57;6.33;;;2.70;;
22814;SDS011;11574;51.058;13.712;2023-04-30T10:16:03;6.87;;;2.33;;
22814;SDS011;11574;51.058;13.712;2023-04-30T10:21:07;5.90;;;3.07;;
22814;SDS011;11574;51.058;13.712;2023-04-30T10:26:11;4.97;;;2.43;;
22814;SDS011;11574;51.058;13.712;2023-04-30T10:31:15;6.43;;;3.00;;
22814;SDS011;11574;51.058;13.712;2023-04-30T10:36:23;9.00;;;3.47;;
22814;SDS011;11574;51.058;13.712;2023-04-30T10:41:27;14.43;;;5.07;;
22814;SDS011;11574;51.058;13.712;2023-04-30T10:46:29;6.90;;;2.70;;
22814;SDS011;11574;51.058;13.712;2023-04-30T10:51:46;6.77;;;2.07;;
22814;SDS011;11574;51.058;13.712;2023-04-30T10:56:49;9.93;;;2.17;;
22814;SDS011;11574;51.058;13.712;2023-04-30T11:01:58;8.60;;;2.43;;
22814;SDS011;11574;51.058;13.712;2023-04-30T11:07:06;8.03;;;3.07;;
22814;SDS011;11574;51.058;13.712;2023-04-30T11:12:09;4.80;;;2.30;;
22814;SDS011;11574;51.058;13.712;2023-04-30T11:17:12;7.40;;;2.50;;
22814;SDS011;11574;51.058;13.712;2023-04-30T11:22:16;5.47;;;2.50;;
22814;SDS011;11574;51.058;13.712;2023-04-30T11:27:19;8.87;;;2.40;;
22814;SDS011;11574;51.058;13.712;2023-04-30T11:32:22;10.47;;;2.80;;
22814;SDS011;11574;51.058;13.712;2023-04-30T11:37:29;10.60;;;2.00;;
22814;SDS011;11574;51.058;13.712;2023-04-30T11:42:32;3.87;;;1.90;;
22814;SDS011;11574;51.058;13.712;2023-04-30T11:47:38;4.87;;;2.30;;
22814;SDS011;11574;51.058;13.712;2023-04-30T11:52:43;6.07;;;2.27;;
22814;SDS011;11574;51.058;13.712;2023-04-30T11:57:49;5.50;;;2.27;;
22814;SDS011;11574;51.058;13.712;2023-04-30T12:02:52;7.27;;;1.90;;
22814;SDS011;11574;51.058;13.712;2023-04-30T12:08:02;4.13;;;1.40;;
22814;SDS011;11574;51.058;13.712;2023-04-30T12:13:05;4.93;;;1.60;;
22814;SDS011;11574;51.058;13.712;2023-04-30T12:18:10;4.17;;;1.60;;
22814;SDS011;11574;51.058;13.712;2023-04-30T12:23:14;6.57;;;1.77;;
22814;SDS011;11574;51.058;13.712;2023-04-30T12:28:16;5.87;;;2.07;;
22814;SDS011;11574;51.058;13.712;2023-04-30T12:33:18;5.03;;;1.83;;
22814;SDS011;11574;51.058;13.712;2023-04-30T12:38:22;6.57;;;2.37;;
22814;SDS011;11574;51.058;13.712;2023-04-30T12:43:24;5.20;;;2.50;;
22814;SDS011;11574;51.058;13.712;2023-04-30T12:48:26;7.10;;;2.40;;
22814;SDS011;11574;51.058;13.712;2023-04-30T12:53:30;3.73;;;1.63;;
22814;SDS011;11574;51.058;13.712;2023-04-30T12:58:32;5.10;;;2.27;;
22814;SDS011;11574;51.058;13.712;2023-04-30T13:03:35;6.30;;;2.90;;
22814;SDS011;11574;51.058;13.712;2023-04-30T13:08:39;7.53;;;3.07;;
22814;SDS011;11574;51.058;13.712;2023-04-30T13:13:41;5.17;;;2.00;;
22814;SDS011;11574;51.058;13.712;2023-04-30T13:18:43;4.73;;;1.77;;
22814;SDS011;11574;51.058;13.712;2023-04-30T13:23:47;4.87;;;1.60;;
22814;SDS011;11574;51.058;13.712;2023-04-30T13:28:49;5.90;;;1.90;;
22814;SDS011;11574;51.058;13.712;2023-04-30T13:33:51;2.77;;;1.90;;
22814;SDS011;11574;51.058;13.712;2023-04-30T13:38:56;3.00;;;1.50;;
22814;SDS011;11574;51.058;13.712;2023-04-30T13:43:58;5.30;;;1.60;;
22814;SDS011;11574;51.058;13.712;2023-04-30T13:49:00;3.77;;;1.67;;
22814;SDS011;11574;51.058;13.712;2023-04-30T13:54:04;4.30;;;1.90;;
22814;SDS011;11574;51.058;13.712;2023-04-30T13:59:06;4.40;;;1.67;;
22814;SDS011;11574;51.058;13.712;2023-04-30T14:04:08;5.93;;;1.80;;
22814;SDS011;11574;51.058;13.712;2023-04-30T14:09:12;4.47;;;1.80;;
22814;SDS011;11574;51.058;13.712;2023-04-30T14:14:14;5.93;;;2.20;;
22814;SDS011;11574;51.058;13.712;2023-04-30T14:19:16;3.57;;;1.73;;
22814;SDS011;11574;51.058;13.712;2023-04-30T14:24:20;6.77;;;1.87;;
22814;SDS011;11574;51.058;13.712;2023-04-30T14:29:22;8.53;;;1.83;;
22814;SDS011;11574;51.058;13.712;2023-04-30T14:34:24;4.23;;;1.30;;
22814;SDS011;11574;51.058;13.712;2023-04-30T14:39:29;6.10;;;1.57;;
22814;SDS011;11574;51.058;13.712;2023-04-30T14:44:31;3.37;;;1.27;;
22814;SDS011;11574;51.058;13.712;2023-04-30T14:49:33;5.10;;;1.37;;
22814;SDS011;11574;51.058;13.712;2023-04-30T14:54:37;2.33;;;1.30;;
22814;SDS011;11574;51.058;13.712;2023-04-30T14:59:39;6.07;;;1.40;;
22814;SDS011;11574;51.058;13.712;2023-04-30T15:04:41;4.13;;;1.30;;
22814;SDS011;11574;51.058;13.712;2023-04-30T15:09:46;2.97;;;1.30;;
22814;SDS011;11574;51.058;13.712;2023-04-30T15:14:48;4.17;;;1.40;;
22814;SDS011;11574;51.058;13.712;2023-04-30T15:19:50;3.63;;;1.50;;
22814;SDS011;11574;51.058;13.712;2023-04-30T15:24:54;2.50;;;1.40;;
22814;SDS011;11574;51.058;13.712;2023-04-30T15:29:56;4.53;;;1.60;;
22814;SDS011;11574;51.058;13.712;2023-04-30T15:34:59;4.40;;;1.50;;
22814;SDS011;11574;51.058;13.712;2023-04-30T15:40:02;4.57;;;1.67;;
22814;SDS011;11574;51.058;13.712;2023-04-30T15:45:06;2.03;;;1.43;;
22814;SDS011;11574;51.058;13.712;2023-04-30T15:50:09;3.70;;;1.60;;
22814;SDS011;11574;51.058;13.712;2023-04-30T15:55:12;6.70;;;1.63;;
22814;SDS011;11574;51.058;13.712;2023-04-30T16:00:15;5.63;;;1.50;;
22814;SDS011;11574;51.058;13.712;2023-04-30T16:05:17;5.20;;;1.30;;
22814;SDS011;11574;51.058;13.712;2023-04-30T16:10:21;7.60;;;1.50;;
22814;SDS011;11574;51.058;13.712;2023-04-30T16:15:23;3.87;;;1.60;;
22814;SDS011;11574;51.058;13.712;2023-04-30T16:20:26;5.70;;;1.70;;
22814;SDS011;11574;51.058;13.712;2023-04-30T16:25:31;4.23;;;1.90;;
22814;SDS011;11574;51.058;13.712;2023-04-30T16:30:33;5.20;;;1.50;;
22814;SDS011;11574;51.058;13.712;2023-04-30T16:35:35;5.87;;;2.13;;
22814;SDS011;11574;51.058;13.712;2023-04-30T16:40:39;3.77;;;1.40;;
22814;SDS011;11574;51.058;13.712;2023-04-30T16:45:41;6.20;;;2.10;;
22814;SDS011;11574;51.058;13.712;2023-04-30T16:50:43;6.33;;;1.80;;
22814;SDS011;11574;51.058;13.712;2023-04-30T16:55:47;7.30;;;1.70;;
22814;SDS011;11574;51.058;13.712;2023-04-30T17:00:50;4.13;;;1.47;;
22814;SDS011;11574;51.058;13.712;2023-04-30T17:05:55;3.00;;;1.70;;
22814;SDS011;11574;51.058;13.712;2023-04-30T17:10:58;9.03;;;1.60;;
22814;SDS011;11574;51.058;13.712;2023-04-30T17:16:00;6.87;;;2.17;;
22814;SDS011;11574;51.058;13.712;2023-04-30T17:21:03;7.63;;;2.00;;
22814;SDS011;11574;51.058;13.712;2023-04-30T17:26:06;5.67;;;2.13;;
22814;SDS011;11574;51.058;13.712;2023-04-30T17:31:08;9.73;;;1.93;;
22814;SDS011;11574;51.058;13.712;2023-04-30T17:36:11;7.30;;;2.47;;
22814;SDS011;11574;51.058;13.712;2023-04-30T17:41:14;5.47;;;2.17;;
22814;SDS011;11574;51.058;13.712;2023-04-30T17:46:18;4.80;;;2.00;;
22814;SDS011;11574;51.058;13.712;2023-04-30T17:51:21;8.70;;;2.70;;
22814;SDS011;11574;51.058;13.712;2023-04-30T17:56:25;7.07;;;2.17;;
22814;SDS011;11574;51.058;13.712;2023-04-30T18:01:28;5.37;;;2.23;;
22814;SDS011;11574;51.058;13.712;2023-04-30T18:06:31;8.43;;;2.00;;
22814;SDS011;11574;51.058;13.712;2023-04-30T18:11:34;7.33;;;3.07;;
22814;SDS011;11574;51.058;13.712;2023-04-30T18:16:36;5.40;;;2.60;;
22814;SDS011;11574;51.058;13.712;2023-04-30T18:21:38;8.53;;;3.07;;
22814;SDS011;11574;51.058;13.712;2023-04-30T18:26:42;8.87;;;3.10;;
22814;SDS011;11574;51.058;13.712;2023-04-30T18:31:44;10.30;;;3.43;;
22814;SDS011;11574;51.058;13.712;2023-04-30T18:36:47;8.03;;;3.37;;
22814;SDS011;11574;51.058;13.712;2023-04-30T18:41:50;7.63;;;3.90;;
22814;SDS011;11574;51.058;13.712;2023-04-30T18:46:53;12.90;;;5.80;;
22814;SDS011;11574;51.058;13.712;2023-04-30T18:51:55;14.10;;;5.87;;
22814;SDS011;11574;51.058;13.712;2023-04-30T18:57:01;11.70;;;6.07;;
22814;SDS011;11574;51.058;13.712;2023-04-30T19:02:03;10.40;;;5.60;;
22814;SDS011;11574;51.058;13.712;2023-04-30T19:07:05;11.77;;;6.33;;
22814;SDS011;11574;51.058;13.712;2023-04-30T19:12:09;14.87;;;5.90;;
22814;SDS011;11574;51.058;13.712;2023-04-30T19:17:12;13.00;;;6.13;;
22814;SDS011;11574;51.058;13.712;2023-04-30T19:22:15;11.57;;;6.40;;
22814;SDS011;11574;51.058;13.712;2023-04-30T19:27:19;14.87;;;6.87;;
22814;SDS011;11574;51.058;13.712;2023-04-30T19:32:21;11.40;;;6.40;;
22814;SDS011;11574;51.058;13.712;2023-04-30T19:37:23;26.00;;;7.70;;
22814;SDS011;11574;51.058;13.712;2023-04-30T19:42:27;19.07;;;9.53;;
22814;SDS011;11574;51.058;13.712;2023-04-30T19:47:29;26.00;;;12.77;;
22814;SDS011;11574;51.058;13.712;2023-04-30T19:52:31;23.70;;;15.37;;
22814;SDS011;11574;51.058;13.712;2023-04-30T19:57:35;23.80;;;14.70;;
22814;SDS011;11574;51.058;13.712;2023-04-30T20:02:37;25.13;;;15.23;;
22814;SDS011;11574;51.058;13.712;2023-04-30T20:07:40;28.13;;;16.70;;
22814;SDS011;11574;51.058;13.712;2023-04-30T20:12:43;26.53;;;14.43;;
22814;SDS011;11574;51.058;13.712;2023-04-30T20:17:45;29.70;;;16.63;;
22814;SDS011;11574;51.058;13.712;2023-04-30T20:22:48;41.63;;;21.73;;
22814;SDS011;11574;51.058;13.712;2023-04-30T20:27:52;35.70;;;18.90;;
22814;SDS011;11574;51.058;13.712;2023-04-30T20:32:55;89.57;;;47.70;;
22814;SDS011;11574;51.058;13.712;2023-04-30T20:37:57;117.90;;;60.00;;
22814;SDS011;11574;51.058;13.712;2023-04-30T20:43:00;43.47;;;23.63;;
22814;SDS011;11574;51.058;13.712;2023-04-30T20:48:03;58.57;;;35.30;;
22814;SDS011;11574;51.058;13.712;2023-04-30T20:53:05;34.23;;;18.33;;
22814;SDS011;11574;51.058;13.712;2023-04-30T20:58:09;36.90;;;19.97;;
22814;SDS011;11574;51.058;13.712;2023-04-30T21:03:11;67.43;;;31.03;;
22814;SDS011;11574;51.058;13.712;2023-04-30T21:08:13;54.80;;;30.53;;
22814;SDS011;11574;51.058;13.712;2023-04-30T21:13:17;38.33;;;20.10;;
22814;SDS011;11574;51.058;13.712;2023-04-30T21:18:19;33.47;;;17.37;;
22814;SDS011;11574;51.058;13.712;2023-04-30T21:23:21;28.73;;;15.23;;
22814;SDS011;11574;51.058;13.712;2023-04-30T21:28:25;27.90;;;14.90;;
22814;SDS011;11574;51.058;13.712;2023-04-30T21:33:27;27.00;;;13.27;;
22814;SDS011;11574;51.058;13.712;2023-04-30T21:38:30;22.80;;;13.47;;
22814;SDS011;11574;51.058;13.712;2023-04-30T21:43:34;25.53;;;14.63;;
22814;SDS011;11574;51.058;13.712;2023-04-30T21:48:36;37.33;;;19.50;;
22814;SDS011;11574;51.058;13.712;2023-04-30T21:53:38;35.00;;;19.73;;
22814;SDS011;11574;51.058;13.712;2023-04-30T21:58:42;20.33;;;12.17;;
22814;SDS011;11574;51.058;13.712;2023-04-30T22:03:44;24.70;;;13.70;;
22814;SDS011;11574;51.058;13.712;2023-04-30T22:08:46;19.42;;;13.18;;
22814;SDS011;11574;51.058;13.712;2023-04-30T22:13:50;21.50;;;12.50;;
22814;SDS011;11574;51.058;13.712;2023-04-30T22:18:53;18.00;;;11.00;;
22814;SDS011;11574;51.058;13.712;2023-04-30T22:23:55;21.00;;;11.17;;
22814;SDS011;11574;51.058;13.712;2023-04-30T22:29:01;22.63;;;12.73;;
22814;SDS011;11574;51.058;13.712;2023-04-30T22:34:03;18.93;;;12.00;;
22814;SDS011;11574;51.058;13.712;2023-04-30T22:39:06;21.37;;;11.37;;
22814;SDS011;11574;51.058;13.712;2023-04-30T22:44:10;18.00;;;10.20;;
22814;SDS011;11574;51.058;13.712;2023-04-30T22:49:12;20.57;;;10.77;;
22814;SDS011;11574;51.058;13.712;2023-04-30T22:54:15;16.87;;;10.50;;
22814;SDS011;11574;51.058;13.712;2023-04-30T22:59:19;18.63;;;10.90;;
22814;SDS011;11574;51.058;13.712;2023-04-30T23:04:22;19.57;;;11.20;;
22814;SDS011;11574;51.058;13.712;2023-04-30T23:09:24;24.50;;;11.67;;
22814;SDS011;11574;51.058;13.712;2023-04-30T23:14:28;22.40;;;11.70;;
22814;SDS011;11574;51.058;13.712;2023-04-30T23:19:30;24.47;;;11.97;;
22814;SDS011;11574;51.058;13.712;2023-04-30T23:24:32;19.27;;;11.73;;
22814;SDS011;11574;51.058;13.712;2023-04-30T23:29:37;26.03;;;13.90;;
22814;SDS011;11574;51.058;13.712;2023-04-30T23:34:40;26.20;;;14.10;;
22814;SDS011;11574;51.058;13.712;2023-04-30T23:39:42;25.07;;;14.13;;
22814;SDS011;11574;51.058;13.712;2023-04-30T23:44:45;43.90;;;21.43;;
22814;SDS011;11574;51.058;13.712;2023-04-30T23:49:47;27.33;;;12.77;;
22814;SDS011;11574;51.058;13.712;2023-04-30T23:54:50;27.37;;;14.40;;
22814;SDS011;11574;51.058;13.712;2023-04-30T23:59:53;21.30;;;11.00;;
